Time;durP1;ratioP1;P1;durP2;ratioP2;P2;SDS_P1;SDS_P2;PMS_P1;PMS_P2;Temp;Humidity;BMP_temperature;BMP_pressure;BME280_temperature;BME280_humidity;BME280_pressure;Samples;Min_cycle;Max_cycle;Signal;HPM_P1;HPM_P2
2023/09/28 00:00:38;;;;;;;;;;;20.50;90.40;;;;;;4240059;27;19931;-52
2023/09/28 00:03:17;;;;;;;;;;;20.50;90.40;;;;;;4240471;27;19930;-51
2023/09/28 00:05:58;;;;;;;;;;;20.50;90.40;;;;;;4239147;27;19925;-53
2023/09/28 00:08:39;;;;;;;;;;;20.50;90.90;;;;;;4239906;27;19976;-47
2023/09/28 00:11:20;;;;;;;;;;;20.50;90.50;;;;;;4223742;28;19926;-52
2023/09/28 00:13:59;;;;;;;;;;;20.50;90.50;;;;;;4223029;28;19926;-53
2023/09/28 00:16:40;;;;;;;;;;;20.50;90.50;;;;;;4223387;28;20298;-53
2023/09/28 00:19:21;;;;;;;;;;;20.50;90.90;;;;;;4223782;27;20069;-49
2023/09/28 00:22:02;;;;;;;;;;;20.50;90.50;;;;;;4210182;28;19930;-51
2023/09/28 00:24:43;;;;;;;;;;;20.50;90.50;;;;;;4223746;28;20294;-52
2023/09/28 00:27:24;;;;;;;;;;;20.50;90.60;;;;;;4238184;27;20502;-52
2023/09/28 00:30:06;;;;;;;;;;;20.50;90.60;;;;;;4239569;27;19945;-47
2023/09/28 00:32:47;;;;;;;;;;;20.50;90.50;;;;;;4239380;27;20282;-49
2023/09/28 00:35:27;;;;;;;;;;;20.50;90.60;;;;;;4239857;27;19931;-48
2023/09/28 00:38:07;;;;;;;;;;;20.50;90.60;;;;;;4239033;27;19926;-48
2023/09/28 00:40:49;;;;;;;;;;;20.50;90.60;;;;;;4239131;27;20052;-48
2023/09/28 00:43:30;;;;;;;;;;;20.50;90.60;;;;;;4238581;27;20483;-50
2023/09/28 00:46:13;;;;;;;;;;;20.50;90.60;;;;;;4225149;27;19930;-52
2023/09/28 00:48:58;;;;;;;;;;;20.50;90.60;;;;;;4238538;27;19946;-49
2023/09/28 00:51:39;;;;;;;;;;;20.50;90.60;;;;;;4239192;27;19927;-49
2023/09/28 00:54:20;;;;;;;;;;;20.50;90.60;;;;;;4239644;27;20422;-48
2023/09/28 00:57:01;;;;;;;;;;;20.50;90.70;;;;;;4237909;27;19965;-51
2023/09/28 00:59:42;;;;;;;;;;;20.50;90.60;;;;;;4239279;27;19931;-52
2023/09/28 01:02:23;;;;;;;;;;;20.50;90.70;;;;;;4239170;27;19926;-52
2023/09/28 01:05:06;;;;;;;;;;;20.50;90.70;;;;;;4232021;27;20293;-49
2023/09/28 01:07:48;;;;;;;;;;;20.50;90.70;;;;;;4222455;28;20039;-50
2023/09/28 01:10:29;;;;;;;;;;;20.50;90.70;;;;;;4209928;28;19926;-52
2023/09/28 01:13:12;;;;;;;;;;;20.50;90.70;;;;;;4212684;28;20306;-52
2023/09/28 01:15:52;;;;;;;;;;;20.40;91.00;;;;;;4221972;28;19926;-50
2023/09/28 01:18:33;;;;;;;;;;;20.40;90.60;;;;;;4209429;28;19926;-51
2023/09/28 01:21:13;;;;;;;;;;;20.50;90.60;;;;;;4224914;27;19930;-51
2023/09/28 01:23:57;;;;;;;;;;;20.40;91.00;;;;;;4212171;28;20053;-53
2023/09/28 01:26:36;;;;;;;;;;;20.40;90.60;;;;;;4222343;28;19926;-51
2023/09/28 01:29:17;;;;;;;;;;;20.40;90.60;;;;;;4222555;28;19927;-52
2023/09/28 01:31:57;;;;;;;;;;;20.40;90.60;;;;;;4222275;28;19930;-53
2023/09/28 01:34:38;;;;;;;;;;;20.40;91.00;;;;;;4222501;28;19949;-53
2023/09/28 01:37:20;;;;;;;;;;;20.40;90.60;;;;;;4228241;27;19972;-54
2023/09/28 01:40:01;;;;;;;;;;;20.40;90.60;;;;;;4239778;27;19934;-54
2023/09/28 01:42:42;;;;;;;;;;;20.40;90.60;;;;;;4238578;27;20290;-54
2023/09/28 01:45:23;;;;;;;;;;;20.40;90.70;;;;;;4239156;27;20381;-53
2023/09/28 01:48:03;;;;;;;;;;;20.40;90.70;;;;;;4226783;27;20033;-54
2023/09/28 01:50:44;;;;;;;;;;;20.40;90.70;;;;;;4239123;27;19930;-54
2023/09/28 01:53:24;;;;;;;;;;;20.40;90.70;;;;;;4227936;27;19931;-54
2023/09/28 01:56:07;;;;;;;;;;;20.40;90.60;;;;;;4237977;27;19926;-52
2023/09/28 01:58:47;;;;;;;;;;;20.40;90.60;;;;;;4225870;27;19997;-54
2023/09/28 02:01:28;;;;;;;;;;;20.40;90.50;;;;;;4225662;27;20061;-54
2023/09/28 02:04:10;;;;;;;;;;;20.40;90.50;;;;;;4238157;27;19926;-55
2023/09/28 02:06:53;;;;;;;;;;;20.40;90.40;;;;;;4237234;27;19930;-54
2023/09/28 02:09:34;;;;;;;;;;;20.40;90.50;;;;;;4225552;27;19959;-53
2023/09/28 02:12:15;;;;;;;;;;;20.40;90.40;;;;;;4237839;27;19930;-55
2023/09/28 02:14:56;;;;;;;;;;;20.40;90.40;;;;;;4237103;27;19926;-54
2023/09/28 02:17:36;;;;;;;;;;;20.40;90.30;;;;;;4237760;27;19996;-53
2023/09/28 02:20:20;;;;;;;;;;;20.40;90.30;;;;;;4237869;27;19970;-55
2023/09/28 02:23:00;;;;;;;;;;;20.30;90.30;;;;;;4220454;28;19929;-54
2023/09/28 02:25:41;;;;;;;;;;;20.30;90.20;;;;;;4221012;28;19930;-54
2023/09/28 02:28:22;;;;;;;;;;;20.40;90.20;;;;;;4221525;28;20387;-53
2023/09/28 02:31:05;;;;;;;;;;;20.30;90.20;;;;;;4235004;27;19968;-54
2023/09/28 02:33:47;;;;;;;;;;;20.30;90.20;;;;;;4220291;28;20393;-53
2023/09/28 02:36:32;;;;;;;;;;;20.30;90.20;;;;;;4208749;28;20000;-54
2023/09/28 02:39:12;;;;;;;;;;;20.40;90.30;;;;;;4221302;27;20012;-52
2023/09/28 02:41:54;;;;;;;;;;;20.30;90.30;;;;;;4224688;27;19926;-54
2023/09/28 02:44:35;;;;;;;;;;;20.30;90.30;;;;;;4238048;27;20003;-55
2023/09/28 02:47:15;;;;;;;;;;;20.30;90.30;;;;;;4238289;27;20353;-54
2023/09/28 02:49:55;;;;;;;;;;;20.30;90.30;;;;;;4230140;27;19968;-54
2023/09/28 02:52:36;;;;;;;;;;;20.30;90.30;;;;;;4220862;28;19926;-53
2023/09/28 02:55:18;;;;;;;;;;;20.30;90.20;;;;;;4208258;28;19946;-52
2023/09/28 02:57:59;;;;;;;;;;;20.30;90.60;;;;;;4221138;28;19972;-52
2023/09/28 03:00:40;;;;;;;;;;;20.30;90.20;;;;;;4217439;28;19930;-50
2023/09/28 03:03:21;;;;;;;;;;;20.30;90.20;;;;;;4220643;28;19997;-51
2023/09/28 03:06:01;;;;;;;;;;;20.30;90.20;;;;;;4207786;28;19942;-51
2023/09/28 03:08:42;;;;;;;;;;;20.30;90.20;;;;;;4208258;28;20351;-49
2023/09/28 03:11:24;;;;;;;;;;;20.30;90.20;;;;;;4218846;27;19964;-53
2023/09/28 03:14:05;;;;;;;;;;;20.30;90.20;;;;;;4236827;27;19930;-50
2023/09/28 03:16:47;;;;;;;;;;;20.30;90.30;;;;;;4225650;27;19930;-53
2023/09/28 03:19:27;;;;;;;;;;;20.30;90.30;;;;;;4217788;28;20710;-52
2023/09/28 03:22:08;;;;;;;;;;;20.30;90.70;;;;;;4215762;28;20487;-54
2023/09/28 03:24:48;;;;;;;;;;;20.30;90.30;;;;;;4216605;28;19941;-50
2023/09/28 03:27:30;;;;;;;;;;;20.30;90.20;;;;;;4221619;28;19925;-50
2023/09/28 03:30:11;;;;;;;;;;;20.30;90.20;;;;;;4221173;28;19968;-53
2023/09/28 03:32:54;;;;;;;;;;;20.30;90.20;;;;;;4225143;27;19927;-52
2023/09/28 03:35:34;;;;;;;;;;;20.30;90.10;;;;;;4223572;28;19942;-52
2023/09/28 03:38:15;;;;;;;;;;;20.20;90.00;;;;;;4223739;28;20037;-53
2023/09/28 03:40:56;;;;;;;;;;;20.30;90.10;;;;;;4224770;27;19926;-52
2023/09/28 03:43:37;;;;;;;;;;;20.30;90.10;;;;;;4223328;27;20038;-50
2023/09/28 03:46:18;;;;;;;;;;;20.20;90.10;;;;;;4224119;28;19927;-51
2023/09/28 03:49:00;;;;;;;;;;;20.20;90.40;;;;;;4224048;28;20019;-53
2023/09/28 03:51:41;;;;;;;;;;;20.20;90.10;;;;;;4224051;28;19932;-53
2023/09/28 03:54:22;;;;;;;;;;;20.20;90.10;;;;;;4224120;28;20393;-49
2023/09/28 03:57:03;;;;;;;;;;;20.20;90.50;;;;;;4228946;27;19926;-52
2023/09/28 03:59:44;;;;;;;;;;;20.20;90.10;;;;;;4239552;27;19926;-50
2023/09/28 04:02:26;;;;;;;;;;;20.20;90.10;;;;;;4239178;27;19930;-50
2023/09/28 04:05:09;;;;;;;;;;;20.20;90.50;;;;;;4227460;27;19965;-51
2023/09/28 04:07:50;;;;;;;;;;;20.20;90.20;;;;;;4240414;27;19930;-52
2023/09/28 04:10:33;;;;;;;;;;;20.20;90.20;;;;;;4240519;27;19926;-50
2023/09/28 04:13:14;;;;;;;;;;;20.20;90.20;;;;;;4239183;27;19925;-52
2023/09/28 04:15:55;;;;;;;;;;;20.20;90.20;;;;;;4240349;27;19926;-54
2023/09/28 04:18:37;;;;;;;;;;;20.20;90.20;;;;;;4239569;27;19926;-52
2023/09/28 04:21:19;;;;;;;;;;;20.20;90.20;;;;;;4239931;27;20007;-49
2023/09/28 04:24:00;;;;;;;;;;;20.20;90.20;;;;;;4240816;27;19926;-52
2023/09/28 04:26:40;;;;;;;;;;;20.20;90.20;;;;;;4240568;27;19930;-53
2023/09/28 04:29:21;;;;;;;;;;;20.20;90.20;;;;;;4228358;27;19931;-54
2023/09/28 04:32:02;;;;;;;;;;;20.20;90.20;;;;;;4226559;27;19927;-50
2023/09/28 04:34:43;;;;;;;;;;;20.20;90.20;;;;;;4227632;27;19926;-52
2023/09/28 04:37:26;;;;;;;;;;;20.20;90.60;;;;;;4240340;27;19925;-52
2023/09/28 04:40:08;;;;;;;;;;;20.20;90.20;;;;;;4224354;28;19930;-48
2023/09/28 04:42:49;;;;;;;;;;;20.20;90.20;;;;;;4200670;28;19926;-50
2023/09/28 04:45:30;;;;;;;;;;;20.20;90.20;;;;;;4222671;28;19927;-52
2023/09/28 04:57:09;;;;;;;;;;;20.20;90.30;;;;;;4129828;23;19938;-43
2023/09/28 04:59:50;;;;;;;;;;;20.10;90.20;;;;;;4092656;29;19929;-41
2023/09/28 05:02:30;;;;;;;;;;;20.10;90.30;;;;;;4092293;29;19933;-41
2023/09/28 05:05:11;;;;;;;;;;;20.10;90.30;;;;;;4092129;29;20292;-41
2023/09/28 05:07:53;;;;;;;;;;;20.10;90.70;;;;;;4092464;29;19933;-41
2023/09/28 05:10:35;;;;;;;;;;;20.10;90.30;;;;;;4092545;29;19949;-41
2023/09/28 05:13:17;;;;;;;;;;;20.10;90.40;;;;;;4092067;29;19933;-42
2023/09/28 05:16:01;;;;;;;;;;;20.20;90.30;;;;;;4087671;29;20073;-42
2023/09/28 05:18:42;;;;;;;;;;;20.20;90.30;;;;;;4075801;29;20301;-42
2023/09/28 05:21:24;;;;;;;;;;;20.10;90.20;;;;;;4094969;28;20415;-42
2023/09/28 05:24:07;;;;;;;;;;;20.10;90.30;;;;;;4105773;28;20060;-41
2023/09/28 05:26:51;;;;;;;;;;;20.10;90.30;;;;;;4108079;28;20395;-43
2023/09/28 05:29:33;;;;;;;;;;;20.10;90.30;;;;;;4099290;28;19933;-42
2023/09/28 05:32:16;;;;;;;;;;;20.10;90.30;;;;;;4077168;29;19929;-45
2023/09/28 05:34:58;;;;;;;;;;;20.10;90.30;;;;;;4075902;29;19933;-42
2023/09/28 05:37:39;;;;;;;;;;;20.00;90.30;;;;;;4075673;29;20004;-42
2023/09/28 05:40:22;;;;;;;;;;;20.00;90.30;;;;;;4077958;29;19929;-42
2023/09/28 05:43:09;;;;;;;;;;;20.10;90.40;;;;;;4089520;29;20392;-43
2023/09/28 05:45:52;;;;;;;;;;;20.00;90.40;;;;;;4092359;29;19929;-42
2023/09/28 05:48:39;;;;;;;;;;;20.00;90.80;;;;;;4081077;29;19969;-42
2023/09/28 05:51:20;;;;;;;;;;;20.10;90.40;;;;;;4080904;29;20362;-45
2023/09/28 05:54:01;;;;;;;;;;;20.00;90.50;;;;;;4075399;29;19961;-42
2023/09/28 05:56:42;;;;;;;;;;;20.00;90.50;;;;;;4075818;29;19950;-44
2023/09/28 05:59:25;;;;;;;;;;;20.10;90.50;;;;;;4076064;29;19934;-45
2023/09/28 06:02:14;;;;;;;;;;;20.00;90.90;;;;;;4075491;29;19958;-43
2023/09/28 06:05:05;;;;;;;;;;;20.00;90.50;;;;;;4078424;29;19929;-43
2023/09/28 06:07:53;;;;;;;;;;;20.10;90.60;;;;;;4091201;29;19929;-41
2023/09/28 06:10:37;;;;;;;;;;;20.10;90.60;;;;;;4089779;29;19949;-41
2023/09/28 06:13:19;;;;;;;;;;;20.10;90.90;;;;;;4091467;29;19929;-41
2023/09/28 06:16:00;;;;;;;;;;;20.00;90.50;;;;;;4085639;29;20401;-41
2023/09/28 06:18:43;;;;;;;;;;;20.00;90.50;;;;;;4075117;29;20274;-41
2023/09/28 06:21:26;;;;;;;;;;;20.00;90.50;;;;;;4094896;28;20293;-41
2023/09/28 06:24:07;;;;;;;;;;;20.10;90.50;;;;;;4076173;29;19973;-41
2023/09/28 06:26:49;;;;;;;;;;;20.10;90.50;;;;;;4080857;29;19933;-41
2023/09/28 06:29:32;;;;;;;;;;;20.00;90.40;;;;;;4063339;29;19973;-41
2023/09/28 06:32:14;;;;;;;;;;;20.10;90.40;;;;;;4079744;29;19976;-42
2023/09/28 06:34:56;;;;;;;;;;;20.00;90.40;;;;;;4090089;29;20402;-41
2023/09/28 06:37:37;;;;;;;;;;;20.00;90.40;;;;;;4083269;29;19934;-41
2023/09/28 06:40:25;;;;;;;;;;;20.00;90.40;;;;;;4082438;29;20010;-41
2023/09/28 06:43:07;;;;;;;;;;;20.00;90.40;;;;;;4077570;29;19957;-42
2023/09/28 06:45:49;;;;;;;;;;;20.00;90.40;;;;;;4079144;29;19933;-41
2023/09/28 06:48:30;;;;;;;;;;;20.00;90.30;;;;;;4074489;29;19934;-41
2023/09/28 06:51:12;;;;;;;;;;;20.00;90.30;;;;;;4089703;29;19969;-42
2023/09/28 06:53:53;;;;;;;;;;;20.00;90.30;;;;;;4074821;29;20021;-41
2023/09/28 06:56:35;;;;;;;;;;;20.00;90.30;;;;;;4074604;29;20017;-41
2023/09/28 06:59:16;;;;;;;;;;;20.00;90.30;;;;;;4063162;29;19930;-42
2023/09/28 07:01:58;;;;;;;;;;;20.00;90.30;;;;;;4084024;29;20411;-41
2023/09/28 07:04:39;;;;;;;;;;;20.00;90.50;;;;;;4081110;28;19930;-41
2023/09/28 07:07:22;;;;;;;;;;;20.00;90.30;;;;;;4075699;29;20296;-41
2023/09/28 07:10:03;;;;;;;;;;;20.00;90.30;;;;;;4089172;29;19930;-41
2023/09/28 07:12:44;;;;;;;;;;;20.00;90.30;;;;;;4090446;29;19934;-41
2023/09/28 07:15:24;;;;;;;;;;;20.00;90.30;;;;;;4098410;28;19953;-42
2023/09/28 07:18:05;;;;;;;;;;;20.00;90.30;;;;;;4083006;29;19933;-41
2023/09/28 07:20:47;;;;;;;;;;;20.10;90.30;;;;;;4090245;29;19930;-42
2023/09/28 07:23:31;;;;;;;;;;;20.10;90.30;;;;;;4067221;29;19930;-41
2023/09/28 07:26:16;;;;;;;;;;;20.10;90.30;;;;;;4074531;29;19930;-41
2023/09/28 07:28:59;;;;;;;;;;;20.10;90.20;;;;;;4074549;29;20066;-42
2023/09/28 07:31:40;;;;;;;;;;;20.10;90.20;;;;;;4074416;29;19981;-41
2023/09/28 07:34:21;;;;;;;;;;;20.10;90.20;;;;;;4071581;29;20277;-41
2023/09/28 07:37:02;;;;;;;;;;;20.20;90.20;;;;;;4078154;29;20387;-41
2023/09/28 07:39:44;;;;;;;;;;;20.20;90.20;;;;;;4090192;29;19969;-42
2023/09/28 07:42:25;;;;;;;;;;;20.20;90.10;;;;;;4081165;29;19929;-41
2023/09/28 07:45:06;;;;;;;;;;;20.20;90.10;;;;;;4078565;28;20443;-42
2023/09/28 07:47:47;;;;;;;;;;;20.20;90.50;;;;;;4083805;29;19929;-42
2023/09/28 07:50:29;;;;;;;;;;;20.30;90.10;;;;;;4076059;28;19930;-41
2023/09/28 07:53:09;;;;;;;;;;;20.30;90.10;;;;;;4093649;28;19933;-41
2023/09/28 07:55:52;;;;;;;;;;;20.30;90.10;;;;;;4081813;28;20062;-41
2023/09/28 07:58:33;;;;;;;;;;;20.30;90.10;;;;;;4084881;29;19989;-42
2023/09/28 08:01:15;;;;;;;;;;;20.30;90.10;;;;;;4080567;29;19930;-42
2023/09/28 08:03:57;;;;;;;;;;;20.40;90.50;;;;;;4091701;28;19933;-41
2023/09/28 08:06:40;;;;;;;;;;;20.40;90.00;;;;;;4078433;29;19933;-42
2023/09/28 08:09:23;;;;;;;;;;;20.40;90.10;;;;;;4075142;29;20005;-42
2023/09/28 08:12:07;;;;;;;;;;;20.50;90.00;;;;;;4074538;29;19934;-42
2023/09/28 08:14:49;;;;;;;;;;;20.50;90.00;;;;;;4074591;29;19934;-42
2023/09/28 08:17:30;;;;;;;;;;;20.50;89.60;;;;;;4065601;29;19930;-42
2023/09/28 08:20:11;;;;;;;;;;;20.60;89.60;;;;;;4076263;29;19929;-42
2023/09/28 08:22:52;;;;;;;;;;;20.60;89.40;;;;;;4085800;29;20370;-42
2023/09/28 08:25:34;;;;;;;;;;;20.60;90.00;;;;;;4092590;29;19993;-42
2023/09/28 08:28:18;;;;;;;;;;;20.60;89.00;;;;;;4092576;29;20380;-42
2023/09/28 08:31:03;;;;;;;;;;;20.60;88.80;;;;;;4081191;29;19933;-41
2023/09/28 08:33:45;;;;;;;;;;;20.60;88.60;;;;;;4077003;29;19953;-42
2023/09/28 08:36:25;;;;;;;;;;;20.60;88.50;;;;;;4077073;29;19969;-41
2023/09/28 08:39:06;;;;;;;;;;;20.60;88.90;;;;;;4077871;29;20066;-42
2023/09/28 08:41:51;;;;;;;;;;;20.70;87.80;;;;;;4076631;29;19929;-41
2023/09/28 08:44:35;;;;;;;;;;;20.70;87.50;;;;;;4076752;29;19981;-42
2023/09/28 08:47:18;;;;;;;;;;;20.70;87.20;;;;;;4077003;29;19946;-42
2023/09/28 08:50:03;;;;;;;;;;;20.70;86.90;;;;;;4085965;29;19933;-42
2023/09/28 08:52:45;;;;;;;;;;;20.70;86.90;;;;;;4092463;29;20021;-42
2023/09/28 08:55:27;;;;;;;;;;;20.70;86.80;;;;;;4081032;29;20012;-42
2023/09/28 08:58:08;;;;;;;;;;;20.70;86.10;;;;;;4091375;29;19949;-42
2023/09/28 09:00:51;;;;;;;;;;;20.70;86.10;;;;;;4077119;29;19929;-42
2023/09/28 09:03:33;;;;;;;;;;;20.70;86.20;;;;;;4076616;29;19985;-42
2023/09/28 09:06:15;;;;;;;;;;;20.70;86.10;;;;;;4076580;29;20687;-42
2023/09/28 09:09:00;;;;;;;;;;;20.70;86.00;;;;;;4079107;29;19934;-42
2023/09/28 09:11:47;;;;;;;;;;;20.70;86.90;;;;;;4092519;29;19929;-42
2023/09/28 09:14:28;;;;;;;;;;;20.80;86.10;;;;;;4092610;29;20062;-42
2023/09/28 09:17:13;;;;;;;;;;;20.80;85.90;;;;;;4080426;29;20389;-41
2023/09/28 09:19:55;;;;;;;;;;;20.80;85.90;;;;;;4079518;29;19930;-42
2023/09/28 09:22:36;;;;;;;;;;;20.80;85.90;;;;;;4064620;29;19949;-42
2023/09/28 09:25:40;;;;;;;;;;;20.80;85.90;;;;;;4075330;29;19988;-42
2023/09/28 09:28:29;;;;;;;;;;;20.80;85.80;;;;;;4075136;29;20328;-42
2023/09/28 09:31:10;;;;;;;;;;;20.80;85.80;;;;;;4085663;29;19960;-42
2023/09/28 09:33:52;;;;;;;;;;;20.80;85.80;;;;;;4092335;29;19930;-41
2023/09/28 09:36:33;;;;;;;;;;;20.80;85.90;;;;;;4091967;29;19933;-42
2023/09/28 09:39:21;;;;;;;;;;;20.80;85.80;;;;;;4082610;29;20053;-41
2023/09/28 09:42:02;;;;;;;;;;;20.80;85.90;;;;;;4075942;29;19929;-41
2023/09/28 09:44:43;;;;;;;;;;;20.80;85.90;;;;;;4075447;29;20254;-41
2023/09/28 09:47:25;;;;;;;;;;;20.80;86.10;;;;;;4075639;29;20258;-42
2023/09/28 09:50:08;;;;;;;;;;;20.70;86.20;;;;;;4090204;29;19992;-41
2023/09/28 09:52:52;;;;;;;;;;;20.70;86.10;;;;;;4091115;29;19995;-42
2023/09/28 09:55:35;;;;;;;;;;;20.70;86.20;;;;;;4089744;29;20003;-42
2023/09/28 09:58:21;;;;;;;;;;;20.70;86.30;;;;;;4091305;29;19969;-42
2023/09/28 10:01:05;;;;;;;;;;;20.70;86.40;;;;;;4079450;29;20085;-41
2023/09/28 10:03:47;;;;;;;;;;;20.70;86.30;;;;;;4072453;29;19934;-42
2023/09/28 10:06:30;;;;;;;;;;;20.70;86.20;;;;;;4063812;29;20390;-42
2023/09/28 10:09:13;;;;;;;;;;;20.70;86.20;;;;;;4075643;29;19929;-42
2023/09/28 10:11:55;;;;;;;;;;;20.70;86.20;;;;;;4075579;29;20389;-42
2023/09/28 10:14:38;;;;;;;;;;;20.70;86.10;;;;;;4088593;29;20062;-42
2023/09/28 10:17:19;;;;;;;;;;;20.70;86.10;;;;;;4079182;29;19933;-41
2023/09/28 10:20:02;;;;;;;;;;;20.70;85.90;;;;;;4090546;29;19929;-42
2023/09/28 10:22:46;;;;;;;;;;;20.70;85.80;;;;;;4091226;29;19930;-40
2023/09/28 10:25:32;;;;;;;;;;;20.70;85.70;;;;;;4090954;29;20013;-39
2023/09/28 10:28:21;;;;;;;;;;;20.70;85.60;;;;;;4091146;29;19929;-39
2023/09/28 10:31:10;;;;;;;;;;;20.70;85.60;;;;;;4090719;29;19933;-40
2023/09/28 10:33:59;;;;;;;;;;;20.70;85.40;;;;;;4080713;29;20289;-40
2023/09/28 10:36:40;;;;;;;;;;;20.70;85.30;;;;;;4075197;29;19933;-40
2023/09/28 10:39:22;;;;;;;;;;;20.70;85.20;;;;;;4074419;29;20023;-40
2023/09/28 10:42:12;;;;;;;;;;;20.70;84.90;;;;;;4071679;29;19946;-40
2023/09/28 10:44:54;;;;;;;;;;;20.80;84.90;;;;;;4074776;29;19929;-40
2023/09/28 10:47:36;;;;;;;;;;;20.80;84.50;;;;;;4074916;29;19931;-40
2023/09/28 10:50:20;;;;;;;;;;;20.80;84.40;;;;;;4074911;29;19980;-40
2023/09/28 10:53:01;;;;;;;;;;;20.80;84.00;;;;;;4074837;29;20381;-40
2023/09/28 10:55:45;;;;;;;;;;;20.80;83.80;;;;;;4074718;29;19985;-40
2023/09/28 10:58:28;;;;;;;;;;;20.80;83.50;;;;;;4074590;29;19933;-40
2023/09/28 11:01:09;;;;;;;;;;;20.80;83.70;;;;;;4074762;29;20409;-40
2023/09/28 11:03:50;;;;;;;;;;;20.80;84.30;;;;;;4070792;29;19973;-40
2023/09/28 11:06:33;;;;;;;;;;;20.80;83.40;;;;;;4074580;29;20384;-40
2023/09/28 11:09:16;;;;;;;;;;;20.80;83.70;;;;;;4074763;29;19977;-40
2023/09/28 11:11:58;;;;;;;;;;;20.80;83.60;;;;;;4062966;29;19930;-40
2023/09/28 11:14:44;;;;;;;;;;;20.80;83.80;;;;;;4074625;29;19930;-40
2023/09/28 11:17:26;;;;;;;;;;;20.80;83.80;;;;;;4074834;29;19933;-40
2023/09/28 11:20:11;;;;;;;;;;;20.80;83.80;;;;;;4074497;29;19961;-40
2023/09/28 11:22:53;;;;;;;;;;;20.80;83.80;;;;;;4066155;29;19977;-40
2023/09/28 11:25:34;;;;;;;;;;;20.80;83.80;;;;;;4090406;29;19960;-41
2023/09/28 11:28:26;;;;;;;;;;;20.80;83.80;;;;;;4074572;29;21452;-41
2023/09/28 11:31:11;;;;;;;;;;;20.80;83.80;;;;;;4062773;29;20067;-41
2023/09/28 11:33:53;;;;;;;;;;;20.80;83.80;;;;;;4066635;29;19930;-40
2023/09/28 11:36:34;;;;;;;;;;;20.80;83.90;;;;;;4071643;29;20270;-41
2023/09/28 11:39:15;;;;;;;;;;;20.80;83.80;;;;;;4090125;29;19929;-41
2023/09/28 11:41:59;;;;;;;;;;;20.80;83.80;;;;;;4090317;29;19929;-40
2023/09/28 11:44:42;;;;;;;;;;;20.80;83.80;;;;;;4068697;29;20286;-41
2023/09/28 11:47:23;;;;;;;;;;;20.80;83.80;;;;;;4074374;29;20034;-40
2023/09/28 11:50:13;;;;;;;;;;;20.80;83.60;;;;;;4073911;29;19977;-40
2023/09/28 11:52:56;;;;;;;;;;;20.80;83.70;;;;;;4077822;29;19933;-41
2023/09/28 11:55:39;;;;;;;;;;;20.80;83.70;;;;;;4065545;29;19933;-40
2023/09/28 11:58:21;;;;;;;;;;;20.80;84.60;;;;;;4065807;29;19933;-40
2023/09/28 12:01:05;;;;;;;;;;;20.80;83.70;;;;;;4065815;29;20421;-41
2023/09/28 12:03:47;;;;;;;;;;;20.80;83.80;;;;;;4079281;29;20381;-41
2023/09/28 12:06:31;;;;;;;;;;;20.80;83.60;;;;;;4093231;29;19933;-41
2023/09/28 12:09:19;;;;;;;;;;;20.80;83.50;;;;;;4093229;29;20069;-41
2023/09/28 12:12:02;;;;;;;;;;;20.80;83.50;;;;;;4089675;29;20340;-40
2023/09/28 12:14:44;;;;;;;;;;;20.80;84.40;;;;;;4085364;29;20337;-40
2023/09/28 12:17:28;;;;;;;;;;;20.80;83.60;;;;;;4079854;29;19942;-40
2023/09/28 12:20:12;;;;;;;;;;;20.80;83.80;;;;;;4077072;29;19933;-42
2023/09/28 12:22:53;;;;;;;;;;;20.80;84.60;;;;;;4064628;29;19938;-41
2023/09/28 12:25:35;;;;;;;;;;;20.90;84.90;;;;;;4091305;29;20399;-40
2023/09/28 12:28:16;;;;;;;;;;;20.90;84.90;;;;;;4077531;29;20297;-41
2023/09/28 12:30:58;;;;;;;;;;;20.90;84.60;;;;;;4085686;29;19930;-41
2023/09/28 12:33:40;;;;;;;;;;;20.90;84.20;;;;;;4076827;29;20297;-41
2023/09/28 12:36:21;;;;;;;;;;;20.90;83.90;;;;;;4092818;28;19933;-41
2023/09/28 12:39:04;;;;;;;;;;;21.00;83.70;;;;;;4100620;28;19945;-40
2023/09/28 12:41:47;;;;;;;;;;;21.00;83.70;;;;;;4076761;29;19969;-41
2023/09/28 12:44:30;;;;;;;;;;;21.00;83.60;;;;;;4076747;29;19958;-40
2023/09/28 12:47:13;;;;;;;;;;;21.00;83.50;;;;;;4084362;28;19989;-40
2023/09/28 12:49:55;;;;;;;;;;;21.00;83.60;;;;;;4084779;29;20424;-40
2023/09/28 12:52:36;;;;;;;;;;;21.00;83.60;;;;;;4092229;29;20485;-40
2023/09/28 12:55:17;;;;;;;;;;;20.90;84.30;;;;;;4092787;29;20388;-41
2023/09/28 12:57:59;;;;;;;;;;;21.00;83.40;;;;;;4092268;29;19949;-41
2023/09/28 13:00:39;;;;;;;;;;;21.00;83.10;;;;;;4088664;29;19928;-42
2023/09/28 13:03:20;;;;;;;;;;;21.00;83.10;;;;;;4092442;29;20051;-45
2023/09/28 13:06:03;;;;;;;;;;;21.00;83.00;;;;;;4092233;29;20443;-43
2023/09/28 13:08:44;;;;;;;;;;;21.00;83.30;;;;;;4091984;28;20297;-42
2023/09/28 13:11:25;;;;;;;;;;;21.00;83.60;;;;;;4075643;29;19929;-43
2023/09/28 13:14:06;;;;;;;;;;;21.10;84.00;;;;;;4076019;29;19933;-43
2023/09/28 13:16:47;;;;;;;;;;;21.10;84.20;;;;;;4075835;29;20014;-46
2023/09/28 13:19:29;;;;;;;;;;;21.20;84.30;;;;;;4082385;28;20013;-44
2023/09/28 13:22:14;;;;;;;;;;;21.20;84.40;;;;;;4096081;28;19945;-47
2023/09/28 13:24:59;;;;;;;;;;;21.20;84.30;;;;;;4075596;29;19930;-42
2023/09/28 13:27:43;;;;;;;;;;;21.30;85.30;;;;;;4079465;28;19934;-41
2023/09/28 13:30:24;;;;;;;;;;;21.30;84.50;;;;;;4087624;29;19933;-41
2023/09/28 13:33:06;;;;;;;;;;;21.30;84.70;;;;;;4091758;29;20376;-42
2023/09/28 13:35:46;;;;;;;;;;;21.30;84.70;;;;;;4079590;29;20392;-42
2023/09/28 13:38:30;;;;;;;;;;;21.30;84.50;;;;;;4074095;29;19933;-40
2023/09/28 13:41:11;;;;;;;;;;;21.30;85.30;;;;;;4064141;29;19969;-40
2023/09/28 13:43:54;;;;;;;;;;;21.30;84.30;;;;;;4076340;29;19934;-41
2023/09/28 13:46:37;;;;;;;;;;;21.30;84.40;;;;;;4076053;28;20389;-39
2023/09/28 13:49:18;;;;;;;;;;;21.30;84.60;;;;;;4075540;29;19929;-42
2023/09/28 13:51:59;;;;;;;;;;;21.40;84.60;;;;;;4078883;28;19933;-40
2023/09/28 13:54:42;;;;;;;;;;;21.40;85.50;;;;;;4084773;28;20469;-39
2023/09/28 13:57:22;;;;;;;;;;;21.40;84.60;;;;;;4100964;28;19933;-39
2023/09/28 14:00:06;;;;;;;;;;;21.40;84.50;;;;;;4100196;28;20061;-44
2023/09/28 14:02:52;;;;;;;;;;;21.50;84.60;;;;;;4083635;28;20432;-39
2023/09/28 14:05:34;;;;;;;;;;;21.50;84.70;;;;;;4086967;28;19929;-39
2023/09/28 14:08:15;;;;;;;;;;;21.50;84.60;;;;;;4074825;29;19965;-39
2023/09/28 14:10:57;;;;;;;;;;;21.50;84.60;;;;;;4080800;29;19930;-42
2023/09/28 14:13:38;;;;;;;;;;;21.50;84.50;;;;;;4074515;29;19930;-42
2023/09/28 14:16:19;;;;;;;;;;;21.50;84.20;;;;;;4072640;28;19929;-38
2023/09/28 14:19:06;;;;;;;;;;;21.60;84.30;;;;;;4061602;28;19970;-38
2023/09/28 14:21:48;;;;;;;;;;;21.60;84.00;;;;;;4090977;29;20449;-39
2023/09/28 14:24:32;;;;;;;;;;;21.60;83.70;;;;;;4090308;29;19969;-40
2023/09/28 14:27:14;;;;;;;;;;;21.60;83.40;;;;;;4090053;29;19973;-40
2023/09/28 14:29:57;;;;;;;;;;;21.60;83.20;;;;;;4090002;29;19933;-42
2023/09/28 14:32:41;;;;;;;;;;;21.60;82.80;;;;;;4063633;29;19933;-40
2023/09/28 14:35:24;;;;;;;;;;;21.60;82.90;;;;;;4075312;29;19933;-42
2023/09/28 14:38:08;;;;;;;;;;;21.60;83.00;;;;;;4063033;29;20290;-38
2023/09/28 14:40:50;;;;;;;;;;;21.70;83.90;;;;;;4078941;28;20061;-40
2023/09/28 14:43:35;;;;;;;;;;;21.70;82.90;;;;;;4074650;29;20693;-40
2023/09/28 14:46:17;;;;;;;;;;;21.70;82.90;;;;;;4074272;29;19953;-44
2023/09/28 14:48:59;;;;;;;;;;;21.70;82.70;;;;;;4078238;28;20008;-42
2023/09/28 14:51:41;;;;;;;;;;;21.70;82.30;;;;;;4085348;29;20029;-40
2023/09/28 14:54:22;;;;;;;;;;;21.70;82.30;;;;;;4070279;29;20027;-41
2023/09/28 14:57:03;;;;;;;;;;;21.70;82.00;;;;;;4083958;29;19928;-44
2023/09/28 14:59:49;;;;;;;;;;;21.70;81.80;;;;;;4064250;29;19933;-43
2023/09/28 15:02:32;;;;;;;;;;;21.60;81.60;;;;;;4074642;29;20385;-42
2023/09/28 15:05:18;;;;;;;;;;;21.60;81.60;;;;;;4089570;29;19929;-40
2023/09/28 15:08:00;;;;;;;;;;;21.60;81.60;;;;;;4090295;29;19933;-42
2023/09/28 15:10:44;;;;;;;;;;;21.60;81.60;;;;;;4088753;29;20008;-41
2023/09/28 15:13:35;;;;;;;;;;;21.60;81.50;;;;;;4078342;29;19933;-41
2023/09/28 15:16:23;;;;;;;;;;;21.50;82.30;;;;;;4090022;29;19929;-41
2023/09/28 15:19:05;;;;;;;;;;;21.50;81.50;;;;;;4099757;28;20039;-40
2023/09/28 15:21:45;;;;;;;;;;;21.50;81.60;;;;;;4092424;28;19934;-41
2023/09/28 15:24:26;;;;;;;;;;;21.50;81.50;;;;;;4089783;28;19929;-39
2023/09/28 15:27:07;;;;;;;;;;;21.50;81.60;;;;;;4089760;29;19932;-40
2023/09/28 15:29:49;;;;;;;;;;;21.50;81.70;;;;;;4089081;29;20494;-40
2023/09/28 15:32:31;;;;;;;;;;;21.50;81.80;;;;;;4089799;29;19929;-40
2023/09/28 15:35:16;;;;;;;;;;;21.40;82.90;;;;;;4089649;29;19988;-39
2023/09/28 15:37:59;;;;;;;;;;;21.40;82.20;;;;;;4089059;29;19929;-40
2023/09/28 15:40:40;;;;;;;;;;;21.40;82.30;;;;;;4071077;29;19981;-39
2023/09/28 15:43:21;;;;;;;;;;;21.40;82.40;;;;;;4073411;29;19933;-39
2023/09/28 15:46:03;;;;;;;;;;;21.40;82.40;;;;;;4073857;29;19934;-39
2023/09/28 15:48:45;;;;;;;;;;;21.40;82.50;;;;;;4087870;28;19981;-39
2023/09/28 15:51:27;;;;;;;;;;;21.40;82.70;;;;;;4081623;29;19933;-40